Time;durP1;ratioP1;P1;durP2;ratioP2;P2;SDS_P1;SDS_P2;PMS_P1;PMS_P2;Temp;Humidity;BMP_temperature;BMP_pressure;BME280_temperature;BME280_humidity;BME280_pressure;Samples;Min_cycle;Max_cycle;Signal;HPM_P1;HPM_P2
2023/04/29 00:00:44;;;;;;;;;;;;;;;8.68;100.00;101372.44;5029651;28;1090;-78
2023/04/29 00:03:10;;;;;;;;;;;;;;;8.62;100.00;101376.25;5028690;28;1149;-76
2023/04/29 00:05:35;;;;;;;;;;;;;;;8.60;100.00;101372.09;5033079;28;1906;-75
2023/04/29 00:08:00;;;;;;;;;;;;;;;8.59;100.00;101370.44;5030216;28;1006;-75
2023/04/29 00:10:26;;;;;;;;;;;;;;;8.63;100.00;101374.47;5035401;28;1422;-75
2023/04/29 00:12:51;;;;;;;;;;;;;;;8.59;100.00;101380.78;5030405;28;1257;-77
2023/04/29 00:15:16;;;;;;;;;;;;;;;8.60;100.00;101377.25;5035662;28;1434;-75
2023/04/29 00:17:41;;;;;;;;;;;;;;;8.57;100.00;101374.88;5031927;28;1635;-76
2023/04/29 00:20:07;;;;;;;;;;;;;;;8.56;100.00;101381.00;5040513;28;1155;-75
2023/04/29 00:22:33;;;;;;;;;;;;;;;8.60;100.00;101377.25;5036435;28;1305;-77
2023/04/29 00:24:58;;;;;;;;;;;;;;;8.60;100.00;101377.25;5031730;28;1948;-76
2023/04/29 00:27:23;;;;;;;;;;;;;;;8.61;100.00;101389.28;5036996;28;1187;-78
2023/04/29 00:29:48;;;;;;;;;;;;;;;8.62;100.00;101391.75;5028736;28;1270;-76
2023/04/29 00:32:14;;;;;;;;;;;;;;;8.60;100.00;101392.78;5034610;28;1156;-78
2023/04/29 00:34:39;;;;;;;;;;;;;;;8.59;100.00;101385.94;5030833;28;1175;-76
2023/04/29 00:37:04;;;;;;;;;;;;;;;8.66;100.00;101397.53;5029006;28;1658;-78
2023/04/29 00:39:29;;;;;;;;;;;;;;;8.63;100.00;101395.16;5034226;28;1160;-77
2023/04/29 00:41:55;;;;;;;;;;;;;;;8.57;100.00;101398.16;5033187;28;1104;-78
2023/04/29 00:44:20;;;;;;;;;;;;;;;8.52;100.00;101394.09;5029376;28;1906;-76
2023/04/29 00:46:45;;;;;;;;;;;;;;;8.58;100.00;101399.81;5044316;28;1149;-77
2023/04/29 00:49:12;;;;;;;;;;;;;;;8.58;100.00;101399.81;5041640;28;1183;-75
2023/04/29 00:51:39;;;;;;;;;;;;;;;8.54;100.00;101400.91;5036447;28;1292;-76
2023/04/29 00:54:05;;;;;;;;;;;;;;;8.54;100.00;101398.34;5054418;28;1484;-76
2023/04/29 00:56:32;;;;;;;;;;;;;;;8.56;100.00;101406.84;5033593;28;1181;-77
2023/04/29 00:58:58;;;;;;;;;;;;;;;8.55;100.00;101405.19;5026265;28;1231;-76
2023/04/29 01:01:23;;;;;;;;;;;;;;;8.63;100.00;101408.09;5037001;28;1290;-75
2023/04/29 01:03:49;;;;;;;;;;;;;;;8.54;100.00;101411.25;5036892;28;1112;-77
2023/04/29 01:06:33;;;;;;;;;;;;;;;8.52;100.00;101417.38;5036637;28;1961;-75
2023/04/29 01:09:05;;;;;;;;;;;;;;;8.54;100.00;101413.84;5026098;28;1398;-78
2023/04/29 01:11:34;;;;;;;;;;;;;;;8.55;100.00;101420.69;5032893;28;1412;-76
2023/04/29 01:14:01;;;;;;;;;;;;;;;8.54;100.00;101419.00;5031012;28;1134;-77
2023/04/29 01:16:29;;;;;;;;;;;;;;;8.50;100.00;101424.41;5032237;28;1191;-78
2023/04/29 01:18:56;;;;;;;;;;;;;;;8.48;100.00;101434.00;5039780;28;1471;-76
2023/04/29 01:21:24;;;;;;;;;;;;;;;8.46;100.00;101430.69;5028894;28;1167;-76
2023/04/29 01:23:54;;;;;;;;;;;;;;;8.45;100.00;101435.94;5033912;28;1227;-80
2023/04/29 01:26:20;;;;;;;;;;;;;;;8.41;100.00;101430.13;5034832;28;1902;-76
2023/04/29 01:28:49;;;;;;;;;;;;;;;8.45;100.00;101436.78;5036911;28;1098;-76
2023/04/29 01:31:18;;;;;;;;;;;;;;;8.43;100.00;101442.97;5037145;28;1289;-79
2023/04/29 01:33:58;;;;;;;;;;;;;;;8.42;100.00;101442.13;5026961;28;1164;-76
2023/04/29 01:36:32;;;;;;;;;;;;;;;8.37;100.00;101449.38;5034441;28;1217;-76
2023/04/29 01:39:18;;;;;;;;;;;;;;;8.33;100.00;101449.63;5031030;28;1181;-78
2023/04/29 01:41:44;;;;;;;;;;;;;;;8.35;100.00;101448.59;5027903;28;1287;-76
2023/04/29 01:44:14;;;;;;;;;;;;;;;8.28;100.00;101444.72;5028634;28;1109;-79
2023/04/29 01:46:39;;;;;;;;;;;;;;;8.25;100.00;101450.91;5028899;28;1943;-76
2023/04/29 01:49:06;;;;;;;;;;;;;;;8.25;100.00;101450.06;5029019;28;1231;-76
2023/04/29 01:51:32;;;;;;;;;;;;;;;8.25;100.00;101450.91;5030121;28;1223;-78
2023/04/29 01:53:58;;;;;;;;;;;;;;;8.26;100.00;101459.50;5033442;28;1090;-78
2023/04/29 01:56:23;;;;;;;;;;;;;;;8.23;100.00;101457.09;5032239;28;1175;-76
2023/04/29 01:58:48;;;;;;;;;;;;;;;8.20;100.00;101446.94;5032948;28;1378;-76
2023/04/29 02:01:14;;;;;;;;;;;;;;;8.22;100.00;101463.19;5030183;28;1300;-76
2023/04/29 02:03:40;;;;;;;;;;;;;;;8.19;100.00;101459.03;5028169;28;1311;-77
2023/04/29 02:06:05;;;;;;;;;;;;;;;8.19;100.00;101460.78;5026758;28;1961;-77
2023/04/29 02:08:31;;;;;;;;;;;;;;;8.18;100.00;101459.13;5027076;28;1423;-77
2023/04/29 02:10:56;;;;;;;;;;;;;;;8.18;100.00;101469.47;5036189;28;1193;-77
2023/04/29 02:13:22;;;;;;;;;;;;;;;8.17;100.00;101462.66;5029029;28;1313;-76
2023/04/29 02:15:47;;;;;;;;;;;;;;;8.16;100.00;101466.97;5029492;28;1169;-77
2023/04/29 02:18:12;;;;;;;;;;;;;;;8.20;100.00;101475.38;5029529;28;1249;-77
2023/04/29 02:20:37;;;;;;;;;;;;;;;8.18;100.00;101470.28;5038516;28;1469;-77
2023/04/29 02:23:02;;;;;;;;;;;;;;;8.17;100.00;101467.81;5029089;28;1459;-76
2023/04/29 02:25:28;;;;;;;;;;;;;;;8.17;100.00;101478.16;5029709;28;2391;-77
2023/04/29 02:27:53;;;;;;;;;;;;;;;8.17;100.00;101483.31;5027902;28;1393;-80
2023/04/29 02:30:18;;;;;;;;;;;;;;;8.17;100.00;101478.16;5029533;28;1292;-76
2023/04/29 02:32:43;;;;;;;;;;;;;;;8.15;100.00;101492.94;5031519;28;1462;-77
2023/04/29 02:35:08;;;;;;;;;;;;;;;8.11;100.00;101488.84;5032481;28;1347;-76
2023/04/29 02:37:34;;;;;;;;;;;;;;;8.11;100.00;101496.59;5029854;28;1160;-76
2023/04/29 02:39:59;;;;;;;;;;;;;;;8.09;100.00;101491.53;5039317;28;1181;-76
2023/04/29 02:42:24;;;;;;;;;;;;;;;8.07;100.00;101497.72;5030154;28;1113;-77
2023/04/29 02:44:49;;;;;;;;;;;;;;;8.08;100.00;101499.38;5031756;28;1889;-76
2023/04/29 02:47:14;;;;;;;;;;;;;;;8.10;100.00;101508.69;5049305;28;1190;-76
2023/04/29 02:49:40;;;;;;;;;;;;;;;8.16;100.00;101507.50;5034840;28;1422;-76
2023/04/29 02:52:05;;;;;;;;;;;;;;;8.10;100.00;101502.69;5032083;28;1180;-76
2023/04/29 02:54:30;;;;;;;;;;;;;;;8.08;100.00;101507.13;5040178;28;1329;-77
2023/04/29 02:56:56;;;;;;;;;;;;;;;8.11;100.00;101509.53;5031403;28;1234;-77
2023/04/29 02:59:21;;;;;;;;;;;;;;;8.06;100.00;101506.38;5030741;28;1138;-77
2023/04/29 03:01:46;;;;;;;;;;;;;;;8.08;100.00;101520.03;5032809;28;1412;-76
2023/04/29 03:04:12;;;;;;;;;;;;;;;8.04;100.00;101513.41;5036589;28;1457;-76
2023/04/29 03:06:37;;;;;;;;;;;;;;;8.04;100.00;101508.25;5028534;28;1931;-76
2023/04/29 03:09:02;;;;;;;;;;;;;;;8.04;100.00;101513.41;5035523;28;1188;-77
2023/04/29 03:11:28;;;;;;;;;;;;;;;8.03;100.00;101516.88;5029524;28;1113;-75
2023/04/29 03:13:53;;;;;;;;;;;;;;;8.04;100.00;101526.31;5038427;28;1205;-77
2023/04/29 03:16:18;;;;;;;;;;;;;;;8.04;100.00;101523.75;5035308;28;1149;-76
2023/04/29 03:18:44;;;;;;;;;;;;;;;8.04;100.00;101523.75;5027911;28;1201;-76
2023/04/29 03:21:09;;;;;;;;;;;;;;;8.02;100.00;101530.72;5039056;28;1290;-75
2023/04/29 03:23:34;;;;;;;;;;;;;;;8.03;100.00;101522.91;5030438;28;1080;-76
2023/04/29 03:26:00;;;;;;;;;;;;;;;8.06;100.00;101527.88;5031409;28;1931;-76
2023/04/29 03:28:25;;;;;;;;;;;;;;;8.07;100.00;101531.28;5038011;28;1048;-75
2023/04/29 03:30:50;;;;;;;;;;;;;;;8.06;100.00;101532.22;5037363;28;1469;-78
2023/04/29 03:33:16;;;;;;;;;;;;;;;8.08;100.00;101525.19;5027733;28;1263;-75
2023/04/29 03:35:41;;;;;;;;;;;;;;;8.08;100.00;101535.53;5029097;28;1116;-76
2023/04/29 03:38:06;;;;;;;;;;;;;;;8.10;100.00;101528.53;5029538;28;986;-77
2023/04/29 03:40:31;;;;;;;;;;;;;;;8.10;100.00;101533.72;5040842;28;1434;-75
2023/04/29 03:42:57;;;;;;;;;;;;;;;8.13;100.00;101538.69;5032556;28;1139;-76
2023/04/29 03:45:22;;;;;;;;;;;;;;;8.14;100.00;101535.16;5031035;28;1890;-75
2023/04/29 03:47:47;;;;;;;;;;;;;;;8.16;100.00;101541.09;5033807;28;989;-76
2023/04/29 03:50:12;;;;;;;;;;;;;;;8.15;100.00;101547.19;5038957;28;1172;-76
2023/04/29 03:52:38;;;;;;;;;;;;;;;8.15;100.00;101540.25;5031341;28;1278;-76
2023/04/29 03:55:03;;;;;;;;;;;;;;;8.16;100.00;101546.25;5040268;28;1203;-76
2023/04/29 03:57:28;;;;;;;;;;;;;;;8.16;100.00;101548.84;5034644;28;1062;-76
2023/04/29 03:59:53;;;;;;;;;;;;;;;8.17;100.00;101551.31;5046791;28;1251;-76
2023/04/29 04:02:19;;;;;;;;;;;;;;;8.16;100.00;101548.84;5033904;28;1314;-76
2023/04/29 04:04:44;;;;;;;;;;;;;;;8.16;100.00;101546.25;5028801;28;1910;-76
2023/04/29 04:07:10;;;;;;;;;;;;;;;8.21;100.00;101557.16;5028897;28;1165;-76
2023/04/29 04:09:35;;;;;;;;;;;;;;;8.14;100.00;101558.41;5027666;28;1101;-76
2023/04/29 04:12:01;;;;;;;;;;;;;;;8.12;100.00;101574.03;5028040;28;1207;-77
2023/04/29 04:14:26;;;;;;;;;;;;;;;8.12;100.00;101568.84;5042144;28;1061;-77
2023/04/29 04:16:51;;;;;;;;;;;;;;;8.14;100.00;101571.34;5032977;28;1282;-76
2023/04/29 04:19:17;;;;;;;;;;;;;;;8.15;100.00;101573.84;5042614;28;1374;-75
2023/04/29 04:21:42;;;;;;;;;;;;;;;8.15;100.00;101579.03;5029707;28;1142;-75
2023/04/29 04:24:07;;;;;;;;;;;;;;;8.14;100.00;101581.66;5027876;28;1170;-76
2023/04/29 04:26:33;;;;;;;;;;;;;;;8.14;100.00;101581.66;5032386;28;1957;-76
2023/04/29 04:28:58;;;;;;;;;;;;;;;8.13;100.00;101575.69;5032089;28;1196;-75
2023/04/29 04:31:24;;;;;;;;;;;;;;;8.24;100.00;101582.78;5036393;28;1233;-76
2023/04/29 04:33:49;;;;;;;;;;;;;;;8.13;100.00;101583.44;5029921;28;1215;-77
2023/04/29 04:36:15;;;;;;;;;;;;;;;8.13;100.00;101595.53;5029209;28;1118;-76
2023/04/29 04:38:40;;;;;;;;;;;;;;;8.14;100.00;101586.84;5031410;28;1212;-75
2023/04/29 04:41:06;;;;;;;;;;;;;;;8.14;100.00;101598.03;5028415;28;1156;-76
2023/04/29 04:43:31;;;;;;;;;;;;;;;8.14;100.00;101604.94;5034521;28;1164;-77
2023/04/29 04:45:56;;;;;;;;;;;;;;;8.15;100.00;101598.88;5031486;28;1909;-75
2023/04/29 04:48:22;;;;;;;;;;;;;;;8.17;100.00;101607.34;5029957;28;1217;-76
2023/04/29 04:50:47;;;;;;;;;;;;;;;8.16;100.00;101605.69;5029858;28;1096;-76
2023/04/29 04:53:12;;;;;;;;;;;;;;;8.20;100.00;101607.16;5035343;28;1270;-75
2023/04/29 04:55:37;;;;;;;;;;;;;;;8.17;100.00;101607.34;5036621;28;1219;-75
2023/04/29 04:58:02;;;;;;;;;;;;;;;8.16;100.00;101616.84;5035543;28;1045;-76
2023/04/29 05:00:28;;;;;;;;;;;;;;;8.15;100.00;101624.69;5038036;28;1152;-76
2023/04/29 05:02:53;;;;;;;;;;;;;;;8.15;100.00;101624.69;5041901;28;1323;-75
2023/04/29 05:05:18;;;;;;;;;;;;;;;8.17;100.00;101628.00;5044039;28;1894;-76
2023/04/29 05:07:43;;;;;;;;;;;;;;;8.12;100.00;101635.19;5035615;28;1156;-76
2023/04/29 05:10:09;;;;;;;;;;;;;;;8.09;100.00;101625.88;5024161;28;1181;-76
2023/04/29 05:12:34;;;;;;;;;;;;;;;8.11;100.00;101638.72;5027762;28;1109;-75
2023/04/29 05:15:00;;;;;;;;;;;;;;;8.10;100.00;101642.22;5036363;28;1208;-75
2023/04/29 05:17:25;;;;;;;;;;;;;;;8.12;100.00;101645.53;5026964;28;990;-76
2023/04/29 05:19:51;;;;;;;;;;;;;;;8.11;100.00;101644.72;5026314;28;1213;-78
2023/04/29 05:22:16;;;;;;;;;;;;;;;8.13;100.00;101654.94;5033304;28;1144;-77
2023/04/29 05:24:41;;;;;;;;;;;;;;;8.12;100.00;101655.88;5032396;28;1902;-77
2023/04/29 05:27:06;;;;;;;;;;;;;;;8.12;100.00;101663.63;5027242;28;1022;-76
2023/04/29 05:29:31;;;;;;;;;;;;;;;8.12;100.00;101664.44;5029809;28;1970;-78
2023/04/29 05:31:57;;;;;;;;;;;;;;;8.12;100.00;101666.22;5029230;28;1092;-75
2023/04/29 05:34:22;;;;;;;;;;;;;;;8.11;100.00;101665.38;5031039;28;1137;-77
2023/04/29 05:36:47;;;;;;;;;;;;;;;8.11;100.00;101674.88;5026606;28;1244;-78
2023/04/29 05:39:13;;;;;;;;;;;;;;;8.14;100.00;101674.69;5044429;28;1247;-75
2023/04/29 05:41:38;;;;;;;;;;;;;;;8.17;100.00;101669.38;5027175;28;879;-76
2023/04/29 05:44:03;;;;;;;;;;;;;;;8.19;100.00;101670.09;5033227;28;1192;-77
2023/04/29 05:46:29;;;;;;;;;;;;;;;8.21;100.00;101670.84;5038250;28;1957;-78
2023/04/29 05:48:54;;;;;;;;;;;;;;;8.23;100.00;101674.16;5030792;28;1337;-75
2023/04/29 05:51:19;;;;;;;;;;;;;;;8.26;100.00;101684.34;5041975;28;1242;-78
2023/04/29 05:53:44;;;;;;;;;;;;;;;8.28;100.00;101679.91;5033702;28;1104;-78
2023/04/29 05:56:10;;;;;;;;;;;;;;;8.30;100.00;101684.97;5038226;28;1146;-76
2023/04/29 05:58:35;;;;;;;;;;;;;;;8.32;100.00;101684.00;5032870;28;1153;-77
2023/04/29 06:01:00;;;;;;;;;;;;;;;8.37;100.00;101686.31;5031756;28;1194;-75
2023/04/29 06:03:26;;;;;;;;;;;;;;;8.39;100.00;101700.81;5034016;28;1173;-77
2023/04/29 06:05:52;;;;;;;;;;;;;;;8.40;100.00;101692.16;5049913;28;1902;-76
2023/04/29 06:08:17;;;;;;;;;;;;;;;8.47;100.00;101708.13;5028861;28;1084;-75
2023/04/29 06:10:42;;;;;;;;;;;;;;;8.49;100.00;101707.13;5033133;28;1513;-75
2023/04/29 06:13:07;;;;;;;;;;;;;;;8.56;100.00;101717.09;5030686;28;1194;-76
2023/04/29 06:15:33;;;;;;;;;;;;;;;8.55;100.00;101705.09;5031380;28;1490;-76
2023/04/29 06:17:58;;;;;;;;;;;;;;;8.65;100.00;101711.38;5052640;28;1159;-76
2023/04/29 06:20:23;;;;;;;;;;;;;;;8.58;100.00;101720.44;5039700;28;1267;-76
2023/04/29 06:22:49;;;;;;;;;;;;;;;8.60;100.00;101726.31;5031136;28;1098;-76
2023/04/29 06:25:14;;;;;;;;;;;;;;;8.62;100.00;101733.09;5033225;28;1894;-77
2023/04/29 06:27:39;;;;;;;;;;;;;;;8.64;100.00;101726.06;5040323;28;1482;-78
2023/04/29 06:30:04;;;;;;;;;;;;;;;8.65;100.00;101732.06;5037409;28;1168;-78
2023/04/29 06:32:30;;;;;;;;;;;;;;;8.69;100.00;101739.56;5037654;28;1274;-76
2023/04/29 06:34:55;;;;;;;;;;;;;;;8.69;100.00;101733.56;5036360;28;1175;-76
2023/04/29 06:37:20;;;;;;;;;;;;;;;8.70;100.00;101730.88;5038608;28;1426;-76
2023/04/29 06:39:45;;;;;;;;;;;;;;;8.74;100.00;101734.13;5039336;28;1130;-78
2023/04/29 06:42:10;;;;;;;;;;;;;;;8.77;100.00;101746.84;5038136;28;1343;-78
2023/04/29 06:44:36;;;;;;;;;;;;;;;8.80;100.00;101751.84;5038381;28;1890;-76
2023/04/29 06:47:01;;;;;;;;;;;;;;;8.85;100.00;101760.19;5049106;28;1494;-78
2023/04/29 06:49:26;;;;;;;;;;;;;;;8.89;100.00;101766.84;5032266;28;1236;-76
2023/04/29 06:51:52;;;;;;;;;;;;;;;8.92;100.00;101760.66;5038101;28;1335;-77
2023/04/29 06:54:17;;;;;;;;;;;;;;;8.94;100.00;101769.97;5041517;28;1358;-75
2023/04/29 06:56:42;;;;;;;;;;;;;;;8.99;100.00;101765.34;5055837;28;1481;-75
2023/04/29 06:59:09;;;;;;;;;;;;;;;9.01;100.00;101768.69;5040441;28;1203;-77
2023/04/29 07:01:35;;;;;;;;;;;;;;;9.04;100.00;101775.44;5039394;28;1483;-74
2023/04/29 07:04:00;;;;;;;;;;;;;;;9.08;100.00;101770.91;5040826;28;1146;-74
2023/04/29 07:06:26;;;;;;;;;;;;;;;9.08;100.00;101776.09;5029738;28;1951;-77
2023/04/29 07:08:51;;;;;;;;;;;;;;;9.11;100.00;101775.88;5028458;28;1150;-77
2023/04/29 07:11:16;;;;;;;;;;;;;;;9.11;100.00;101788.84;5031382;28;1183;-77
2023/04/29 07:13:42;;;;;;;;;;;;;;;9.13;100.00;101797.34;5035726;28;1342;-75
2023/04/29 07:16:18;;;;;;;;;;;;;;;9.14;100.00;101796.44;5031828;28;1270;-75
2023/04/29 07:18:44;;;;;;;;;;;;;;;9.18;100.00;101803.09;5032982;28;1120;-74
2023/04/29 07:21:09;;;;;;;;;;;;;;;9.19;100.00;101805.56;5029639;28;1227;-75
2023/04/29 07:23:34;;;;;;;;;;;;;;;9.20;100.00;101806.41;5034414;28;1148;-75
2023/04/29 07:26:07;;;;;;;;;;;;;;;9.22;100.00;101804.56;5030653;28;1894;-76
2023/04/29 07:28:33;;;;;;;;;;;;;;;9.33;100.00;101812.50;5038608;28;1117;-77
2023/04/29 07:30:58;;;;;;;;;;;;;;;9.29;100.00;101811.03;5030652;28;1230;-77
2023/04/29 07:33:23;;;;;;;;;;;;;;;9.30;100.00;101816.13;5036572;28;1108;-77
2023/04/29 07:35:49;;;;;;;;;;;;;;;9.31;100.00;101815.19;5031271;28;1121;-76
2023/04/29 07:38:14;;;;;;;;;;;;;;;9.34;100.00;101824.50;5037284;28;1215;-75
2023/04/29 07:40:40;;;;;;;;;;;;;;;9.39;100.00;101822.47;5031023;28;1410;-77
2023/04/29 07:43:07;;;;;;;;;;;;;;;9.45;100.00;101827.28;5036979;28;1275;-75
2023/04/29 07:45:33;;;;;;;;;;;;;;;9.53;100.00;101830.25;5056071;28;1887;-75
2023/04/29 07:47:58;;;;;;;;;;;;;;;9.57;99.62;101826.53;5033079;28;1230;-76
2023/04/29 07:50:23;;;;;;;;;;;;;;;9.64;100.00;101841.72;5032263;28;1172;-77
2023/04/29 07:52:48;;;;;;;;;;;;;;;9.63;98.39;101843.47;5032611;28;1157;-75
2023/04/29 07:55:14;;;;;;;;;;;;;;;9.64;98.56;101841.72;5033075;28;1392;-75
2023/04/29 07:57:39;;;;;;;;;;;;;;;9.70;98.50;101846.53;5029937;28;1315;-75
2023/04/29 08:00:04;;;;;;;;;;;;;;;9.73;97.92;101841.16;5035678;28;1212;-77
2023/04/29 08:02:30;;;;;;;;;;;;;;;9.79;99.08;101848.53;5033740;28;1092;-75
2023/04/29 08:04:55;;;;;;;;;;;;;;;9.84;96.67;101844.72;5039839;28;1894;-76
2023/04/29 08:07:20;;;;;;;;;;;;;;;9.88;97.25;101853.16;5035922;28;1223;-75
2023/04/29 08:09:46;;;;;;;;;;;;;;;9.94;96.17;101850.19;5028870;28;1191;-76
2023/04/29 08:12:11;;;;;;;;;;;;;;;9.98;96.42;101841.28;5032973;28;1269;-76
2023/04/29 08:14:36;;;;;;;;;;;;;;;10.02;96.17;101847.94;5041987;28;1073;-76
2023/04/29 08:17:01;;;;;;;;;;;;;;;10.04;95.85;101851.28;5028824;28;1165;-78
2023/04/29 08:19:26;;;;;;;;;;;;;;;10.05;95.28;101846.94;5036164;28;1113;-78
2023/04/29 08:21:52;;;;;;;;;;;;;;;10.03;94.71;101849.59;5040061;28;1216;-76
2023/04/29 08:24:17;;;;;;;;;;;;;;;10.04;93.83;101858.22;5032238;28;1121;-79
2023/04/29 08:26:42;;;;;;;;;;;;;;;10.07;94.97;101856.25;5032038;28;2411;-77
2023/04/29 08:29:07;;;;;;;;;;;;;;;10.13;94.91;101849.03;5037846;28;1300;-77
2023/04/29 08:31:33;;;;;;;;;;;;;;;10.15;92.13;101857.53;5033599;28;1303;-77
2023/04/29 08:33:58;;;;;;;;;;;;;;;10.21;93.13;101862.34;5028220;28;1113;-77
2023/04/29 08:36:24;;;;;;;;;;;;;;;10.21;92.30;101868.38;5032729;28;1117;-77
2023/04/29 08:38:52;;;;;;;;;;;;;;;10.22;90.76;101864.84;5032496;28;1081;-76
2023/04/29 08:41:17;;;;;;;;;;;;;;;10.25;91.56;101869.00;5033497;28;1231;-76
2023/04/29 08:43:42;;;;;;;;;;;;;;;10.30;93.28;101872.97;5032060;28;1352;-77
2023/04/29 08:46:08;;;;;;;;;;;;;;;10.32;91.15;101870.28;5035545;28;1921;-76
2023/04/29 08:48:35;;;;;;;;;;;;;;;10.34;91.65;101873.63;5034042;28;1278;-77
2023/04/29 08:51:01;;;;;;;;;;;;;;;10.39;91.66;101881.94;5038244;28;1144;-76
2023/04/29 08:53:26;;;;;;;;;;;;;;;10.50;92.20;101879.50;5031528;28;1212;-76
2023/04/29 08:55:53;;;;;;;;;;;;;;;10.58;91.56;101882.41;5030700;28;1231;-76
2023/04/29 08:58:18;;;;;;;;;;;;;;;10.72;88.42;101884.09;5026746;28;1076;-78
2023/04/29 09:00:44;;;;;;;;;;;;;;;10.81;89.87;101888.69;5036187;28;1270;-78
2023/04/29 09:03:15;;;;;;;;;;;;;;;10.84;86.43;101892.88;5037291;28;1123;-78
2023/04/29 09:05:42;;;;;;;;;;;;;;;10.92;88.59;101885.41;5027954;28;1969;-78
2023/04/29 09:08:07;;;;;;;;;;;;;;;11.02;87.66;101888.22;5031465;28;1347;-76
2023/04/29 09:10:34;;;;;;;;;;;;;;;11.08;86.47;101896.44;5031790;28;1120;-78
2023/04/29 09:13:00;;;;;;;;;;;;;;;11.23;88.80;101884.19;5033881;28;1217;-80
2023/04/29 09:15:25;;;;;;;;;;;;;;;11.35;87.44;101887.72;5045020;28;1509;-77
2023/04/29 09:17:50;;;;;;;;;;;;;;;11.38;85.31;101890.13;5027760;28;1271;-78
2023/04/29 09:20:18;;;;;;;;;;;;;;;11.35;83.77;101898.94;5031658;28;1311;-77
2023/04/29 09:22:50;;;;;;;;;;;;;;;11.31;85.05;101901.88;5036157;28;1440;-78
2023/04/29 09:25:16;;;;;;;;;;;;;;;11.39;87.29;101902.16;5031595;28;1978;-79
2023/04/29 09:27:41;;;;;;;;;;;;;;;11.58;86.60;101899.97;5028434;28;1192;-78
2023/04/29 09:30:07;;;;;;;;;;;;;;;11.98;85.78;101899.81;5030131;28;1215;-79
2023/04/29 09:32:32;;;;;;;;;;;;;;;11.89;83.50;101900.50;5028903;28;1108;-78
2023/04/29 09:34:57;;;;;;;;;;;;;;;11.93;83.87;101901.94;5031929;28;1168;-78
2023/04/29 09:37:24;;;;;;;;;;;;;;;11.95;82.83;101906.09;5032731;28;1105;-79
2023/04/29 09:39:49;;;;;;;;;;;;;;;11.97;82.56;101905.97;5042120;28;1280;-80
2023/04/29 09:42:14;;;;;;;;;;;;;;;11.97;80.05;101916.38;5036327;28;1371;-78
2023/04/29 09:44:40;;;;;;;;;;;;;;;11.92;82.52;101902.84;5032404;28;1315;-79
2023/04/29 09:47:06;;;;;;;;;;;;;;;11.82;81.91;101917.47;5045067;28;1975;-78
2023/04/29 09:49:32;;;;;;;;;;;;;;;11.77;79.96;101920.34;5031391;28;1413;-78
2023/04/29 09:51:59;;;;;;;;;;;;;;;11.84;82.20;101905.16;5033419;28;1477;-78
2023/04/29 09:54:27;;;;;;;;;;;;;;;11.97;81.97;101911.16;5034228;28;1246;-79
2023/04/29 09:56:52;;;;;;;;;;;;;;;11.95;80.91;101913.06;5030431;28;1354;-78
2023/04/29 09:59:18;;;;;;;;;;;;;;;11.92;79.76;101913.25;5034312;28;1204;-79
2023/04/29 10:01:43;;;;;;;;;;;;;;;11.97;80.72;101913.75;5033610;28;1326;-78
2023/04/29 10:04:10;;;;;;;;;;;;;;;11.95;80.46;101907.84;5041464;28;1262;-78
2023/04/29 10:06:37;;;;;;;;;;;;;;;11.98;81.03;101907.63;5028692;28;1965;-78
2023/04/29 10:09:03;;;;;;;;;;;;;;;12.08;82.17;101911.25;5026481;28;1189;-79
2023/04/29 10:11:28;;;;;;;;;;;;;;;12.27;80.40;101912.53;5041983;28;1460;-78
2023/04/29 10:13:53;;;;;;;;;;;;;;;12.32;79.82;101915.63;5025351;28;1314;-79
2023/04/29 10:16:22;;;;;;;;;;;;;;;12.29;77.10;101926.28;5035354;28;1374;-77
2023/04/29 10:18:50;;;;;;;;;;;;;;;12.27;78.81;101923.78;5028250;28;2077;-79
2023/04/29 10:21:17;;;;;;;;;;;;;;;12.30;77.51;101930.53;5033585;28;1374;-78
2023/04/29 10:23:43;;;;;;;;;;;;;;;12.15;76.42;101925.47;5041155;28;1262;-78
2023/04/29 10:26:11;;;;;;;;;;;;;;;12.17;77.74;101923.63;5027036;28;1891;-78
2023/04/29 10:28:37;;;;;;;;;;;;;;;12.28;78.35;101924.63;5033879;28;1291;-78
2023/04/29 10:31:03;;;;;;;;;;;;;;;12.39;77.98;101935.09;5028890;28;1141;-78
2023/04/29 10:33:32;;;;;;;;;;;;;;;12.39;74.85;101927.28;5026235;28;1112;-79
2023/04/29 10:35:59;;;;;;;;;;;;;;;12.41;75.83;101931.44;5045802;28;1226;-78
2023/04/29 10:38:28;;;;;;;;;;;;;;;12.41;73.20;101926.22;5031133;28;1253;-78
2023/04/29 10:40:55;;;;;;;;;;;;;;;12.49;75.82;101936.06;5030715;28;1634;-78
2023/04/29 10:43:24;;;;;;;;;;;;;;;12.55;73.92;101938.22;5040232;28;1155;-79
2023/04/29 10:45:49;;;;;;;;;;;;;;;12.58;73.65;101938.03;5031009;28;1955;-77
2023/04/29 10:48:14;;;;;;;;;;;;;;;12.62;74.38;101939.47;5026130;28;1398;-78
2023/04/29 10:50:45;;;;;;;;;;;;;;;12.66;74.71;101945.28;5031019;28;1129;-77
2023/04/29 10:53:11;;;;;;;;;;;;;;;12.67;73.68;101939.13;5034275;28;1433;-77
2023/04/29 10:55:37;;;;;;;;;;;;;;;12.66;73.59;101940.91;5032972;28;1243;-80
2023/04/29 10:58:22;;;;;;;;;;;;;;;12.65;72.02;101939.25;5026284;28;1128;-78
2023/04/29 11:00:47;;;;;;;;;;;;;;;12.72;74.70;101944.81;5032395;28;1172;-78
2023/04/29 11:03:32;;;;;;;;;;;;;;;12.75;74.75;101945.44;5037926;28;1160;-78
2023/04/29 11:06:07;;;;;;;;;;;;;;;12.81;73.87;101940.75;5029705;28;1949;-78
2023/04/29 11:08:38;;;;;;;;;;;;;;;12.85;76.03;101939.56;5036853;28;1086;-77
2023/04/29 11:11:03;;;;;;;;;;;;;;;12.87;73.53;101948.91;5047134;28;1323;-78
2023/04/29 11:13:29;;;;;;;;;;;;;;;12.88;74.04;101949.75;5031177;28;1219;-77
2023/04/29 11:16:04;;;;;;;;;;;;;;;12.93;73.53;101942.44;5037602;28;1145;-77
2023/04/29 11:18:29;;;;;;;;;;;;;;;12.99;73.78;101944.59;5043806;28;1180;-77
2023/04/29 11:21:07;;;;;;;;;;;;;;;13.07;71.01;101944.84;5046946;28;1323;-78
2023/04/29 11:23:33;;;;;;;;;;;;;;;13.05;73.40;101936.31;5030686;28;1116;-77
2023/04/29 11:25:58;;;;;;;;;;;;;;;13.10;72.45;101944.63;5032850;28;1894;-78
2023/04/29 11:28:23;;;;;;;;;;;;;;;13.17;72.25;101945.81;5030868;28;1351;-78
2023/04/29 11:30:52;;;;;;;;;;;;;;;13.17;71.48;101955.41;5036504;28;1345;-77
2023/04/29 11:33:18;;;;;;;;;;;;;;;13.13;72.64;101947.00;5037835;28;1307;-78
2023/04/29 11:35:44;;;;;;;;;;;;;;;13.11;72.38;101941.06;5035999;28;1380;-78
2023/04/29 11:38:09;;;;;;;;;;;;;;;13.14;71.23;101940.84;5044350;28;1235;-78
2023/04/29 11:40:34;;;;;;;;;;;;;;;13.22;71.09;101932.47;5035948;28;1462;-78
2023/04/29 11:42:59;;;;;;;;;;;;;;;13.35;71.62;101948.03;5034178;28;1206;-77
2023/04/29 11:45:25;;;;;;;;;;;;;;;13.50;70.92;101936.44;5036318;28;1956;-80
2023/04/29 11:47:51;;;;;;;;;;;;;;;13.55;71.34;101939.53;5033642;28;1271;-79
2023/04/29 11:50:18;;;;;;;;;;;;;;;13.64;68.06;101944.03;5031932;28;1157;-78
2023/04/29 11:52:45;;;;;;;;;;;;;;;13.73;71.25;101953.75;5029162;28;1157;-77
2023/04/29 11:55:10;;;;;;;;;;;;;;;13.73;70.87;101948.53;5028567;28;1287;-77
2023/04/29 11:57:36;;;;;;;;;;;;;;;13.71;71.17;101950.44;5034201;28;1333;-77
2023/04/29 12:00:01;;;;;;;;;;;;;;;13.58;70.05;101956.69;5033673;28;1399;-77
2023/04/29 12:02:30;;;;;;;;;;;;;;;13.60;69.58;101952.22;5048917;28;1184;-77
2023/04/29 12:04:56;;;;;;;;;;;;;;;13.62;69.91;101945.94;5032607;28;1968;-79
2023/04/29 12:07:22;;;;;;;;;;;;;;;13.74;68.06;101958.03;5040561;28;1354;-78
2023/04/29 12:09:47;;;;;;;;;;;;;;;13.72;69.29;101951.28;5030944;28;1233;-77
2023/04/29 12:12:13;;;;;;;;;;;;;;;13.73;68.25;101953.75;5028889;28;1119;-77
2023/04/29 12:14:39;;;;;;;;;;;;;;;13.79;68.94;101948.06;5034825;28;1144;-77
2023/04/29 12:17:04;;;;;;;;;;;;;;;13.88;66.35;101948.28;5030142;28;1196;-79
2023/04/29 12:19:30;;;;;;;;;;;;;;;13.96;67.92;101945.94;5028851;28;1176;-77
2023/04/29 12:21:58;;;;;;;;;;;;;;;14.05;68.38;101953.06;5028371;28;1363;-77
2023/04/29 12:24:24;;;;;;;;;;;;;;;14.05;64.84;101946.06;5032216;28;1085;-78
2023/04/29 12:26:53;;;;;;;;;;;;;;;14.05;65.27;101947.84;5028798;28;1938;-77
2023/04/29 12:29:21;;;;;;;;;;;;;;;14.04;65.79;101946.16;5037180;28;1333;-78
2023/04/29 12:31:46;;;;;;;;;;;;;;;14.03;67.43;101944.50;5030143;28;1165;-77
2023/04/29 12:34:11;;;;;;;;;;;;;;;14.02;65.56;101950.66;5040057;28;1132;-78
2023/04/29 12:36:37;;;;;;;;;;;;;;;14.05;66.72;101945.22;5039043;28;1290;-77
2023/04/29 12:39:05;;;;;;;;;;;;;;;14.08;66.95;101948.41;5032840;28;1259;-77
2023/04/29 12:41:40;;;;;;;;;;;;;;;14.09;64.45;101941.41;5037426;28;1314;-79